Krakow, WI (54137)

2:41 PM CDT on August 03, 2015 (GMT -0500)
Sampson Valley Vineyard | | Change Station
CLOSE
Current Station
Personal Weather Station
Location: Sampson, WI
Elevation: 787 ft
Nearby Weather Stations

Elev 787 ft 44.76 °N, 88.18 °W | Updated 34 seconds ago

Mostly Cloudy
Mostly Cloudy
76.1 °F
Feels Like 78 °F
N
0.0
Wind Variable Wind from North
Gusts 0.0 mph

Today
High -- | Low -- °F
--% Chance of Precip.
Yesterday
High -- | Low -- °F
Precip. -- in
5:40 AM 8:16 PM
Waning Gibbous, 84% visible
Pressure 29.81 in
Visibility 10.0 miles
Clouds Scattered Clouds 6500 ft
Mostly Cloudy 7500 ft
Overcast 8500 ft
Heat Index 78 °F
Dew Point 54 °F
Humidity 47%
Rainfall 0.00 in
Snow Depth Not available.
UV 3 out of 12
Pollen 7.80 out of 12
Air Quality Not available.
Flu Activity Not available.
METAR KEZS 031935Z AUTO 29010G15KT 10SM SCT065 BKN075 OVC085 25/10 A2981 RMK AO2 T02470104

More Conditions Fewer Conditions

Pressure 29.81 in
Visibility 10.0 miles
Clouds Scattered Clouds 6500 ft
Mostly Cloudy 7500 ft
Overcast 8500 ft
Heat Index 78 °F
Dew Point 54 °F
Humidity 47%
Rainfall 0.00 in
Snow Depth Not available.
UV 3 out of 12
Pollen 7.80 out of 12
Air Quality Not available.
Flu Activity Not available.
METAR KEZS 031935Z AUTO 29010G15KT 10SM SCT065 BKN075 OVC085 25/10 A2981 RMK AO2 T02470104

More Conditions Fewer Conditions

10-Day Weather Forecast

×

Almanac

Astronomy

Aug. 03, 2015 Rise Set
Actual Time
Civil Twilight
Nautical Twilight
Astronomical Twilight
Moon
Length of Visible Light
Length of Day
Tomorrow will be .
, % of the Moon is Illuminated

Today's Extremes

State Highs State Lows

Community

WunderPhotos

Upload Photos

1,843,717 photos uploaded!

WunderBlogs® & News

Nearby

Air Quality

  Air Quality AQ Index Pollutant
Not available.

Snow Depth

Station Depth Elevation

Earthquake Activity

City Distance Mag. Time & Date
Minimum magnitude displayed is 2.5.

Coastal Water Temperatures

Place Temperature

Stations

Nearby Weather Stations

Station Location Temp. Windchill Dew Point Humidity Wind Precip. Elev Updated Type